Time;durP1;ratioP1;P1;durP2;ratioP2;P2;SDS_P1;SDS_P2;PMS_P1;PMS_P2;Temp;Humidity;BMP_temperature;BMP_pressure;BME280_temperature;BME280_humidity;BME280_pressure;Samples;Min_cycle;Max_cycle;Signal;HPM_P1;HPM_P2
2021/04/15 00:00:58;;;;;;;7.20;2.10;;;;;;;;;;4990165;28;20038;-71
2021/04/15 00:03:25;;;;;;;7.97;1.90;;;;;;;;;;4996759;28;20558;-71
2021/04/15 00:05:51;;;;;;;8.60;2.05;;;;;;;;;;4985594;28;20030;-71
2021/04/15 00:08:18;;;;;;;10.52;1.92;;;;;;;;;;4995682;28;20720;-71
2021/04/15 00:10:46;;;;;;;9.65;2.03;;;;;;;;;;4990014;28;20094;-71
2021/04/15 00:13:23;;;;;;;8.07;1.90;;;;;;;;;;4989567;28;20030;-71
2021/04/15 00:15:50;;;;;;;8.77;2.30;;;;;;;;;;4993702;28;20034;-71
2021/04/15 00:18:16;;;;;;;5.45;1.88;;;;;;;;;;4998303;28;20538;-71
2021/04/15 00:20:42;;;;;;;6.93;2.63;;;;;;;;;;4984022;28;20149;-71
2021/04/15 00:23:08;;;;;;;6.57;2.42;;;;;;;;;;4986623;28;20125;-71
2021/04/15 00:25:34;;;;;;;6.20;2.50;;;;;;;;;;4992002;28;20509;-71
2021/04/15 00:28:00;;;;;;;5.97;2.53;;;;;;;;;;5017235;28;20034;-71
2021/04/15 00:30:27;;;;;;;10.77;4.50;;;;;;;;;;4988023;28;20041;-71
2021/04/15 00:32:53;;;;;;;5.88;2.78;;;;;;;;;;5010779;28;20117;-71
2021/04/15 00:35:19;;;;;;;6.93;2.33;;;;;;;;;;4988313;28;20038;-71
2021/04/15 00:37:45;;;;;;;12.18;3.40;;;;;;;;;;4988535;28;20476;-71
2021/04/15 00:40:12;;;;;;;9.32;3.28;;;;;;;;;;4991995;28;20036;-71
2021/04/15 00:42:38;;;;;;;6.90;2.83;;;;;;;;;;4996478;28;20066;-71
2021/04/15 00:45:10;;;;;;;9.52;3.25;;;;;;;;;;4988736;28;20041;-71
2021/04/15 00:47:37;;;;;;;4.55;2.90;;;;;;;;;;4988642;28;20018;-71
2021/04/15 00:50:08;;;;;;;6.28;2.47;;;;;;;;;;4994726;28;20036;-72
2021/04/15 00:52:38;;;;;;;7.75;2.83;;;;;;;;;;4988716;28;20096;-75
2021/04/15 00:55:08;;;;;;;8.98;2.70;;;;;;;;;;4993542;28;20054;-71
2021/04/15 00:57:37;;;;;;;11.65;2.75;;;;;;;;;;4995485;28;20026;-71
2021/04/15 01:00:10;;;;;;;10.35;2.90;;;;;;;;;;4984628;28;20575;-71
2021/04/15 01:02:37;;;;;;;8.68;2.78;;;;;;;;;;4988269;28;20056;-71
2021/04/15 01:05:12;;;;;;;6.72;2.90;;;;;;;;;;4984816;28;20022;-71
2021/04/15 01:07:38;;;;;;;7.65;2.78;;;;;;;;;;4988476;28;20030;-71
2021/04/15 01:10:05;;;;;;;8.07;3.05;;;;;;;;;;4987837;28;20057;-71
2021/04/15 01:12:43;;;;;;;8.30;2.33;;;;;;;;;;4987307;28;20113;-74
2021/04/15 01:15:27;;;;;;;4.88;2.65;;;;;;;;;;4983918;28;20054;-71
2021/04/15 01:17:54;;;;;;;6.95;2.45;;;;;;;;;;4993021;28;20042;-71
2021/04/15 01:20:44;;;;;;;5.65;2.38;;;;;;;;;;4982244;28;20034;-72
2021/04/15 01:23:16;;;;;;;7.88;2.58;;;;;;;;;;5026498;28;20030;-72
2021/04/15 01:25:57;;;;;;;7.50;2.50;;;;;;;;;;4993806;28;20428;-71
2021/04/15 01:28:27;;;;;;;7.78;2.97;;;;;;;;;;4991889;28;20014;-71
2021/04/15 01:31:04;;;;;;;10.98;2.70;;;;;;;;;;4988589;28;20034;-71
2021/04/15 01:33:34;;;;;;;10.93;2.83;;;;;;;;;;4984274;28;20136;-71
2021/04/15 01:36:03;;;;;;;10.48;3.67;;;;;;;;;;4999212;28;20550;-71
2021/04/15 01:38:35;;;;;;;7.90;2.47;;;;;;;;;;4988041;28;20109;-71
2021/04/15 01:41:08;;;;;;;6.22;2.50;;;;;;;;;;4986335;28;20081;-71
2021/04/15 01:43:37;;;;;;;8.77;2.90;;;;;;;;;;4987989;28;20026;-71
2021/04/15 01:46:04;;;;;;;7.55;2.50;;;;;;;;;;4999587;28;20073;-71
2021/04/15 01:48:33;;;;;;;8.45;2.50;;;;;;;;;;4987760;28;20067;-72
2021/04/15 01:51:02;;;;;;;10.68;2.92;;;;;;;;;;4987610;28;20023;-71
2021/04/15 01:53:47;;;;;;;7.25;2.42;;;;;;;;;;4982131;28;20030;-72
2021/04/15 01:56:16;;;;;;;8.50;2.58;;;;;;;;;;4998390;28;20030;-71
2021/04/15 01:58:45;;;;;;;11.70;2.95;;;;;;;;;;4986742;28;20035;-71
2021/04/15 02:01:16;;;;;;;9.05;3.05;;;;;;;;;;4986653;28;20118;-71
2021/04/15 02:03:44;;;;;;;8.30;3.38;;;;;;;;;;4997560;28;20092;-72
2021/04/15 02:06:13;;;;;;;9.00;2.72;;;;;;;;;;4991019;28;20066;-71
2021/04/15 02:08:45;;;;;;;10.15;2.88;;;;;;;;;;4997399;28;20026;-71
2021/04/15 02:11:18;;;;;;;13.65;3.42;;;;;;;;;;4999047;28;20088;-71
2021/04/15 02:13:45;;;;;;;7.68;2.58;;;;;;;;;;5001884;28;20383;-72
2021/04/15 02:16:15;;;;;;;7.88;2.72;;;;;;;;;;4992907;28;20030;-71
2021/04/15 02:18:44;;;;;;;7.22;3.38;;;;;;;;;;4995153;28;20076;-71
2021/04/15 02:21:17;;;;;;;8.60;2.78;;;;;;;;;;4991569;28;20062;-71
2021/04/15 02:24:03;;;;;;;11.32;3.00;;;;;;;;;;4994890;28;20033;-71
2021/04/15 02:26:36;;;;;;;7.22;2.55;;;;;;;;;;4994473;28;20039;-71
2021/04/15 02:29:06;;;;;;;11.27;2.72;;;;;;;;;;4998356;28;20033;-71
2021/04/15 02:31:35;;;;;;;17.35;3.53;;;;;;;;;;4998583;28;20054;-71
2021/04/15 02:34:05;;;;;;;13.00;3.72;;;;;;;;;;4993140;28;20027;-71
2021/04/15 02:36:41;;;;;;;7.68;2.80;;;;;;;;;;4990163;28;20431;-71
2021/04/15 02:39:13;;;;;;;8.27;2.85;;;;;;;;;;4993115;28;20026;-71
2021/04/15 02:41:40;;;;;;;7.07;2.85;;;;;;;;;;4979165;28;20503;-71
2021/04/15 02:44:10;;;;;;;16.42;4.03;;;;;;;;;;5000326;28;20089;-71
2021/04/15 02:46:48;;;;;;;7.80;3.13;;;;;;;;;;5001602;28;20033;-71
2021/04/15 02:49:15;;;;;;;8.77;3.50;;;;;;;;;;4990777;28;20022;-71
2021/04/15 02:51:44;;;;;;;8.63;2.50;;;;;;;;;;4992290;28;20022;-71
2021/04/15 02:54:14;;;;;;;5.93;2.60;;;;;;;;;;4990185;28;20034;-72
2021/04/15 02:56:46;;;;;;;10.48;3.17;;;;;;;;;;4986289;28;20068;-72
2021/04/15 02:59:17;;;;;;;13.90;2.72;;;;;;;;;;4984216;28;20034;-72
2021/04/15 03:01:45;;;;;;;5.90;2.58;;;;;;;;;;4987076;28;20053;-72
2021/04/15 03:04:15;;;;;;;6.45;2.25;;;;;;;;;;4983199;28;20085;-72
2021/04/15 03:06:42;;;;;;;9.80;2.72;;;;;;;;;;4990316;28;20484;-72
2021/04/15 03:09:09;;;;;;;4.97;1.98;;;;;;;;;;4986142;28;20034;-72
2021/04/15 03:11:55;;;;;;;8.43;2.30;;;;;;;;;;4994691;28;20030;-72
2021/04/15 03:14:33;;;;;;;7.15;2.70;;;;;;;;;;4999039;28;20023;-72
2021/04/15 03:17:01;;;;;;;5.03;2.40;;;;;;;;;;4990261;28;20038;-72
2021/04/15 03:19:33;;;;;;;9.13;3.05;;;;;;;;;;5000803;28;20038;-72
2021/04/15 03:21:59;;;;;;;5.80;2.60;;;;;;;;;;4982442;28;20038;-72
2021/04/15 03:24:30;;;;;;;7.35;2.83;;;;;;;;;;4988870;28;20392;-72
2021/04/15 03:27:03;;;;;;;7.07;2.50;;;;;;;;;;4989228;28;20106;-72
2021/04/15 03:29:32;;;;;;;8.85;2.25;;;;;;;;;;4983771;28;20031;-72
2021/04/15 03:32:16;;;;;;;8.60;2.60;;;;;;;;;;4990244;28;20391;-72
2021/04/15 03:35:14;;;;;;;11.68;2.97;;;;;;;;;;4990436;28;20022;-72
2021/04/15 03:37:48;;;;;;;4.05;2.35;;;;;;;;;;4985720;28;20424;-72
2021/04/15 03:40:17;;;;;;;9.07;3.08;;;;;;;;;;4989419;28;20038;-72
2021/04/15 03:42:52;;;;;;;4.85;2.53;;;;;;;;;;4990841;28;20102;-72
2021/04/15 03:45:50;;;;;;;6.72;2.70;;;;;;;;;;4989272;28;20030;-72
2021/04/15 03:48:20;;;;;;;7.28;3.60;;;;;;;;;;4997799;28;20548;-72
2021/04/15 03:50:58;;;;;;;7.15;2.42;;;;;;;;;;4986922;28;20022;-72
2021/04/15 03:53:27;;;;;;;11.18;3.03;;;;;;;;;;4986178;28;20029;-71
2021/04/15 03:56:01;;;;;;;9.82;3.00;;;;;;;;;;5001659;28;20044;-72
2021/04/15 03:58:37;;;;;;;7.88;4.10;;;;;;;;;;5001305;28;20036;-72
2021/04/15 04:01:29;;;;;;;7.70;2.60;;;;;;;;;;5010860;28;20058;-72
2021/04/15 04:04:05;;;;;;;6.38;2.65;;;;;;;;;;5012026;28;20025;-72
2021/04/15 04:06:34;;;;;;;6.93;3.40;;;;;;;;;;5018200;28;20029;-73
2021/04/15 04:09:05;;;;;;;5.45;2.90;;;;;;;;;;5013945;28;20070;-72
2021/04/15 04:11:33;;;;;;;4.70;2.50;;;;;;;;;;5013736;28;20033;-72
2021/04/15 04:14:01;;;;;;;7.70;2.45;;;;;;;;;;5025523;28;20034;-72
2021/04/15 04:16:31;;;;;;;6.18;2.22;;;;;;;;;;5017716;28;20029;-72
2021/04/15 04:18:57;;;;;;;7.55;2.47;;;;;;;;;;5005194;28;20081;-72
2021/04/15 04:21:31;;;;;;;7.88;2.00;;;;;;;;;;4989965;28;20049;-72
2021/04/15 04:23:57;;;;;;;8.20;2.60;;;;;;;;;;4983578;28;20050;-72
2021/04/15 04:26:25;;;;;;;6.75;2.03;;;;;;;;;;4987886;28;20464;-71
2021/04/15 04:29:00;;;;;;;8.82;2.35;;;;;;;;;;4988152;28;20026;-72
2021/04/15 04:31:29;;;;;;;5.68;2.10;;;;;;;;;;4991901;28;20033;-72
2021/04/15 04:33:56;;;;;;;8.90;2.05;;;;;;;;;;4984341;28;20172;-72
2021/04/15 04:36:24;;;;;;;6.15;2.67;;;;;;;;;;4985973;28;20500;-72
2021/04/15 04:38:54;;;;;;;6.72;2.75;;;;;;;;;;4988691;28;20121;-72
2021/04/15 04:41:40;;;;;;;6.47;2.97;;;;;;;;;;4997562;28;20508;-72
2021/04/15 04:44:11;;;;;;;7.43;3.10;;;;;;;;;;4987778;28;20046;-72
2021/04/15 04:46:52;;;;;;;6.57;2.20;;;;;;;;;;4994649;28;20030;-72
2021/04/15 04:49:17;;;;;;;;;;;;;;;;;;4989376;28;20444;-72
2021/04/15 04:51:44;;;;;;;12.65;4.18;;;;;;;;;;4992845;28;19906;-72
2021/04/15 04:54:10;;;;;;;8.18;2.33;;;;;;;;;;4983624;28;20134;-72
2021/04/15 04:56:39;;;;;;;3.95;2.47;;;;;;;;;;4998442;28;20030;-72
2021/04/15 04:59:16;;;;;;;7.32;3.40;;;;;;;;;;4982336;28;20456;-72
2021/04/15 05:01:42;;;;;;;7.78;3.55;;;;;;;;;;5005865;28;20125;-72
2021/04/15 05:04:08;;;;;;;8.30;3.33;;;;;;;;;;4993256;28;20042;-72
2021/04/15 05:06:37;;;;;;;11.70;3.70;;;;;;;;;;4980377;28;20064;-72
2021/04/15 05:09:09;;;;;;;7.80;3.50;;;;;;;;;;4988280;28;20040;-71
2021/04/15 05:11:41;;;;;;;8.55;3.58;;;;;;;;;;4986577;28;20022;-72
2021/04/15 05:14:08;;;;;;;6.40;3.33;;;;;;;;;;4988803;28;20117;-72
2021/04/15 05:16:39;;;;;;;9.70;3.78;;;;;;;;;;4995194;28;20399;-72
2021/04/15 05:19:05;;;;;;;4.43;2.78;;;;;;;;;;4981872;28;20039;-71
2021/04/15 05:21:32;;;;;;;8.52;3.20;;;;;;;;;;4981173;28;20065;-71
2021/04/15 05:24:07;;;;;;;8.88;3.13;;;;;;;;;;5001549;28;20038;-71
2021/04/15 05:26:35;;;;;;;7.97;2.72;;;;;;;;;;4990171;28;20105;-71
2021/04/15 05:29:01;;;;;;;6.15;2.80;;;;;;;;;;4987309;28;20033;-71
2021/04/15 05:31:28;;;;;;;10.27;2.85;;;;;;;;;;4990442;28;20031;-71
2021/04/15 05:33:57;;;;;;;6.78;2.53;;;;;;;;;;5005656;28;20038;-71
2021/04/15 05:36:40;;;;;;;6.25;2.28;;;;;;;;;;4992825;28;20456;-71
2021/04/15 05:39:10;;;;;;;9.93;2.88;;;;;;;;;;4992793;28;20368;-71
2021/04/15 05:41:47;;;;;;;6.93;2.45;;;;;;;;;;4985364;28;20030;-72
2021/04/15 05:44:28;;;;;;;9.98;2.22;;;;;;;;;;4999446;28;20076;-72
2021/04/15 05:46:55;;;;;;;9.45;2.60;;;;;;;;;;4993056;28;20084;-72
2021/04/15 05:49:23;;;;;;;7.32;2.63;;;;;;;;;;4992008;28;20014;-72
2021/04/15 05:52:07;;;;;;;6.95;3.38;;;;;;;;;;4984187;28;20086;-71
2021/04/15 05:54:35;;;;;;;7.03;2.33;;;;;;;;;;4986615;28;20046;-70
2021/04/15 05:57:08;;;;;;;6.05;2.58;;;;;;;;;;4979227;28;20038;-70
2021/04/15 05:59:53;;;;;;;3.88;1.52;;;;;;;;;;4975667;28;20039;-70
2021/04/15 06:02:23;;;;;;;8.13;2.20;;;;;;;;;;4988641;28;20030;-71
2021/04/15 06:04:57;;;;;;;8.63;2.85;;;;;;;;;;4979596;28;20551;-71
2021/04/15 06:07:25;;;;;;;9.10;1.90;;;;;;;;;;5017023;28;20050;-71
2021/04/15 06:09:51;;;;;;;6.82;2.08;;;;;;;;;;4987171;28;20077;-71
2021/04/15 06:12:36;;;;;;;6.88;1.52;;;;;;;;;;4988719;28;20413;-69
2021/04/15 06:15:05;;;;;;;7.20;2.40;;;;;;;;;;4993618;28;20034;-69
2021/04/15 06:17:35;;;;;;;12.82;2.95;;;;;;;;;;4985128;28;20034;-71
2021/04/15 06:20:13;;;;;;;6.05;2.15;;;;;;;;;;4977491;28;20558;-70
2021/04/15 06:22:44;;;;;;;6.97;2.30;;;;;;;;;;4992262;28;20031;-70
2021/04/15 06:25:18;;;;;;;7.25;2.35;;;;;;;;;;4978065;28;20046;-70
2021/04/15 06:27:45;;;;;;;5.70;2.17;;;;;;;;;;4975773;28;20053;-71
2021/04/15 06:30:22;;;;;;;8.18;1.80;;;;;;;;;;4975933;28;20132;-70
2021/04/15 06:32:50;;;;;;;9.68;2.13;;;;;;;;;;4981639;28;20519;-70
2021/04/15 06:35:23;;;;;;;8.00;2.28;;;;;;;;;;4976320;28;20366;-70
2021/04/15 06:37:52;;;;;;;8.68;2.40;;;;;;;;;;4976671;28;20035;-72
2021/04/15 06:40:33;;;;;;;7.80;1.90;;;;;;;;;;4976308;28;20048;-72
2021/04/15 06:43:03;;;;;;;7.72;1.90;;;;;;;;;;4975940;28;20118;-72
2021/04/15 06:45:41;;;;;;;6.45;2.08;;;;;;;;;;4975872;28;20030;-72
2021/04/15 06:48:16;;;;;;;7.35;2.35;;;;;;;;;;4994366;28;20030;-72
2021/04/15 06:50:52;;;;;;;5.05;1.67;;;;;;;;;;4972889;28;20041;-72
2021/04/15 06:53:36;;;;;;;8.88;1.85;;;;;;;;;;4979007;28;20518;-73
2021/04/15 06:56:21;;;;;;;7.60;2.17;;;;;;;;;;4988274;28;20034;-73
2021/04/15 06:58:56;;;;;;;7.50;3.13;;;;;;;;;;4985108;28;20054;-73
2021/04/15 07:01:31;;;;;;;5.53;2.13;;;;;;;;;;5021779;28;20141;-73
2021/04/15 07:03:57;;;;;;;11.02;1.98;;;;;;;;;;4996284;28;20026;-73
2021/04/15 07:06:42;;;;;;;6.53;2.15;;;;;;;;;;4989388;28;20026;-73
2021/04/15 07:09:15;;;;;;;9.20;2.55;;;;;;;;;;4993364;28;20479;-73
2021/04/15 07:11:59;;;;;;;8.77;2.85;;;;;;;;;;5004463;28;20054;-73
2021/04/15 07:14:40;;;;;;;5.10;1.95;;;;;;;;;;5007434;28;20035;-73
2021/04/15 07:17:25;;;;;;;6.75;2.72;;;;;;;;;;5005018;28;20128;-74
2021/04/15 07:19:54;;;;;;;8.48;2.95;;;;;;;;;;5002010;28;20087;-74
2021/04/15 07:22:38;;;;;;;6.78;2.40;;;;;;;;;;4999618;28;20022;-73
2021/04/15 07:25:07;;;;;;;5.18;1.98;;;;;;;;;;4997285;28;20049;-73
2021/04/15 07:27:42;;;;;;;5.57;1.75;;;;;;;;;;4989312;28;20030;-73
2021/04/15 07:30:27;;;;;;;6.05;1.77;;;;;;;;;;5003421;28;20030;-73
2021/04/15 07:33:12;;;;;;;2.88;1.10;;;;;;;;;;4988465;28;20031;-73
2021/04/15 07:35:58;;;;;;;3.22;0.80;;;;;;;;;;4993894;28;20041;-73
2021/04/15 07:38:40;;;;;;;3.10;0.90;;;;;;;;;;4995347;28;20084;-73
2021/04/15 07:41:16;;;;;;;2.47;0.60;;;;;;;;;;4990890;28;20054;-73
2021/04/15 07:43:45;;;;;;;1.00;0.60;;;;;;;;;;4995416;28;20456;-73
2021/04/15 07:46:29;;;;;;;1.45;0.50;;;;;;;;;;4992700;28;20114;-73
2021/04/15 07:49:02;;;;;;;0.90;0.47;;;;;;;;;;5000322;28;20034;-73
2021/04/15 07:51:39;;;;;;;3.25;1.02;;;;;;;;;;4995344;28;20088;-74
2021/04/15 07:54:23;;;;;;;4.05;0.52;;;;;;;;;;4999071;28;20026;-73
2021/04/15 07:57:10;;;;;;;1.88;0.30;;;;;;;;;;5000575;28;20046;-73
2021/04/15 07:59:44;;;;;;;4.15;0.65;;;;;;;;;;4973624;28;20031;-74
2021/04/15 08:02:29;;;;;;;4.95;0.80;;;;;;;;;;4991731;28;20053;-71
2021/04/15 08:04:54;;;;;;;2.25;0.70;;;;;;;;;;4985000;28;20088;-71
2021/04/15 08:07:43;;;;;;;2.33;0.50;;;;;;;;;;4990065;28;20023;-72
2021/04/15 08:10:23;;;;;;;3.20;0.88;;;;;;;;;;4988790;28;20030;-72
2021/04/15 08:13:12;;;;;;;1.95;0.70;;;;;;;;;;4993737;28;20101;-72
2021/04/15 08:16:01;;;;;;;1.98;0.93;;;;;;;;;;4989535;28;20038;-72
2021/04/15 08:18:41;;;;;;;3.38;0.90;;;;;;;;;;4952678;28;20381;-73
2021/04/15 08:21:14;;;;;;;5.65;0.93;;;;;;;;;;5000741;28;20082;-72
2021/04/15 08:23:52;;;;;;;5.57;1.40;;;;;;;;;;4985358;28;20116;-72
2021/04/15 08:26:27;;;;;;;2.83;1.63;;;;;;;;;;4979277;28;20026;-72
2021/04/15 08:28:56;;;;;;;5.57;1.48;;;;;;;;;;4992052;28;20156;-73
2021/04/15 08:31:46;;;;;;;6.28;2.00;;;;;;;;;;4977005;28;20098;-73
2021/04/15 08:34:25;;;;;;;6.25;1.73;;;;;;;;;;4982368;28;20835;-72
2021/04/15 08:36:54;;;;;;;5.65;1.52;;;;;;;;;;4984715;28;20053;-72
2021/04/15 08:39:23;;;;;;;9.00;1.60;;;;;;;;;;4980651;28;20031;-73
2021/04/15 08:42:16;;;;;;;3.63;1.25;;;;;;;;;;4976827;28;20042;-73
2021/04/15 08:44:45;;;;;;;7.68;1.35;;;;;;;;;;4986820;28;20147;-73
2021/04/15 08:47:11;;;;;;;5.35;1.60;;;;;;;;;;4987479;28;20022;-72
2021/04/15 08:49:58;;;;;;;5.20;1.70;;;;;;;;;;4982702;28;20400;-73
2021/04/15 08:52:40;;;;;;;5.88;1.42;;;;;;;;;;4984244;28;20400;-73
2021/04/15 08:55:09;;;;;;;6.22;2.10;;;;;;;;;;4995160;28;20025;-72
2021/04/15 08:57:44;;;;;;;4.43;1.52;;;;;;;;;;4991462;28;20026;-72
2021/04/15 09:00:29;;;;;;;5.63;1.48;;;;;;;;;;5024593;28;20387;-72
2021/04/15 09:02:56;;;;;;;4.50;1.35;;;;;;;;;;4981282;28;20026;-72
2021/04/15 09:05:22;;;;;;;4.05;1.67;;;;;;;;;;4994140;28;20046;-72
2021/04/15 09:07:51;;;;;;;6.82;2.88;;;;;;;;;;5026380;28;20100;-72
2021/04/15 09:10:34;;;;;;;3.33;1.45;;;;;;;;;;4992008;28;20048;-71
2021/04/15 09:13:19;;;;;;;5.18;1.80;;;;;;;;;;5040343;28;20083;-71
2021/04/15 09:15:57;;;;;;;2.53;1.30;;;;;;;;;;5037638;28;20081;-72
2021/04/15 09:18:32;;;;;;;2.08;0.95;;;;;;;;;;5029639;28;20034;-71
2021/04/15 09:20:58;;;;;;;5.20;1.20;;;;;;;;;;5026347;28;20800;-72
2021/04/15 09:23:36;;;;;;;4.78;1.42;;;;;;;;;;5033620;28;20033;-71
2021/04/15 09:26:21;;;;;;;2.67;0.93;;;;;;;;;;5034028;28;20025;-71
2021/04/15 09:29:02;;;;;;;1.95;1.17;;;;;;;;;;5023222;28;20030;-72
2021/04/15 09:31:34;;;;;;;4.25;1.35;;;;;;;;;;5008715;28;20022;-72
2021/04/15 09:34:16;;;;;;;2.47;1.00;;;;;;;;;;5030072;28;20040;-72
2021/04/15 09:36:51;;;;;;;2.10;1.10;;;;;;;;;;5035138;28;20059;-73
2021/04/15 09:39:17;;;;;;;3.10;1.20;;;;;;;;;;5022993;28;20037;-72
2021/04/15 09:41:43;;;;;;;3.53;2.22;;;;;;;;;;5033769;28;20032;-72
2021/04/15 09:44:21;;;;;;;2.95;0.90;;;;;;;;;;5032573;28;20404;-72
2021/04/15 09:46:56;;;;;;;2.95;1.42;;;;;;;;;;5015810;28;20034;-72
2021/04/15 09:49:25;;;;;;;5.55;1.55;;;;;;;;;;5019982;28;20018;-71
2021/04/15 09:52:12;;;;;;;2.55;1.30;;;;;;;;;;5022177;28;20305;-71
2021/04/15 09:54:47;;;;;;;3.85;1.13;;;;;;;;;;5024648;28;20029;-71
2021/04/15 09:57:16;;;;;;;3.45;1.20;;;;;;;;;;5025924;28;20091;-71
2021/04/15 09:59:51;;;;;;;3.28;1.30;;;;;;;;;;5032550;28;20021;-71
2021/04/15 10:02:37;;;;;;;5.68;1.35;;;;;;;;;;5023375;28;20052;-71
2021/04/15 10:05:03;;;;;;;2.55;1.58;;;;;;;;;;5020463;28;20537;-71
2021/04/15 10:07:34;;;;;;;4.55;1.58;;;;;;;;;;5031236;28;20033;-71
2021/04/15 10:10:20;;;;;;;7.53;1.65;;;;;;;;;;5030989;28;20351;-71
2021/04/15 10:13:05;;;;;;;9.57;2.15;;;;;;;;;;5029108;28;20439;-70
2021/04/15 10:15:30;;;;;;;2.00;1.48;;;;;;;;;;5026210;28;20105;-71
2021/04/15 10:17:59;;;;;;;2.85;1.10;;;;;;;;;;5018416;28;20137;-71
2021/04/15 10:20:42;;;;;;;4.97;1.80;;;;;;;;;;5019070;28;20030;-70
2021/04/15 10:23:14;;;;;;;4.75;1.38;;;;;;;;;;5021023;28;20487;-71
2021/04/15 10:25:46;;;;;;;2.88;1.30;;;;;;;;;;5024518;28;20045;-71
2021/04/15 10:28:29;;;;;;;2.70;1.35;;;;;;;;;;5028186;28;20018;-71
2021/04/15 10:31:07;;;;;;;1.27;0.65;;;;;;;;;;5020614;28;20377;-71
2021/04/15 10:33:38;;;;;;;2.05;0.47;;;;;;;;;;5015723;28;20450;-70
2021/04/15 10:36:13;;;;;;;2.40;0.40;;;;;;;;;;5018439;28;20030;-71
2021/04/15 10:38:57;;;;;;;3.95;0.80;;;;;;;;;;5014446;28;20088;-70
2021/04/15 10:41:42;;;;;;;1.52;0.60;;;;;;;;;;5016117;28;20126;-71
2021/04/15 10:44:11;;;;;;;2.08;0.70;;;;;;;;;;5027071;28;20033;-70
2021/04/15 10:46:49;;;;;;;2.28;0.70;;;;;;;;;;5011211;28;20476;-70
2021/04/15 10:49:30;;;;;;;1.60;1.10;;;;;;;;;;5014964;28;20024;-70
2021/04/15 10:52:02;;;;;;;2.47;1.40;;;;;;;;;;5014285;28;20018;-71
2021/04/15 10:54:37;;;;;;;3.03;1.48;;;;;;;;;;5013608;28;20033;-71
2021/04/15 10:57:17;;;;;;;2.35;1.38;;;;;;;;;;5012075;28;20148;-73
2021/04/15 10:59:44;;;;;;;5.47;1.40;;;;;;;;;;5017631;28;20375;-72
2021/04/15 11:02:12;;;;;;;4.38;2.10;;;;;;;;;;5019194;28;20144;-74
2021/04/15 11:04:38;;;;;;;4.30;1.60;;;;;;;;;;5019369;28;20032;-72
2021/04/15 11:07:08;;;;;;;2.50;1.13;;;;;;;;;;5025138;28;20018;-72
2021/04/15 11:09:38;;;;;;;2.55;1.00;;;;;;;;;;5012989;28;20030;-72
2021/04/15 11:12:07;;;;;;;5.07;1.50;;;;;;;;;;5025143;28;20032;-72
2021/04/15 11:14:38;;;;;;;4.32;1.88;;;;;;;;;;5022458;28;20017;-72
2021/04/15 11:17:14;;;;;;;3.65;1.88;;;;;;;;;;5031391;28;20040;-72
2021/04/15 11:19:40;;;;;;;2.25;1.55;;;;;;;;;;5019449;28;20025;-72
2021/04/15 11:22:30;;;;;;;4.47;2.00;;;;;;;;;;5020597;28;20137;-71
2021/04/15 11:25:20;;;;;;;4.00;1.48;;;;;;;;;;5013550;28;20483;-73
2021/04/15 11:27:46;;;;;;;7.30;1.92;;;;;;;;;;5020281;28;20631;-74
2021/04/15 11:30:28;;;;;;;3.65;1.88;;;;;;;;;;5015679;28;20021;-73
2021/04/15 11:32:54;;;;;;;9.57;2.40;;;;;;;;;;5016251;28;20076;-73
2021/04/15 11:35:21;;;;;;;3.85;1.58;;;;;;;;;;5016810;28;20033;-72
2021/04/15 11:37:49;;;;;;;5.50;1.70;;;;;;;;;;5012053;28;20032;-72
2021/04/15 11:40:17;;;;;;;4.30;1.48;;;;;;;;;;5011705;28;20053;-72
2021/04/15 11:42:43;;;;;;;4.60;1.40;;;;;;;;;;5017558;28;20034;-72
2021/04/15 11:45:13;;;;;;;4.95;1.58;;;;;;;;;;5022692;28;20053;-72
2021/04/15 11:47:40;;;;;;;2.13;1.15;;;;;;;;;;5015292;28;20068;-72
2021/04/15 11:50:13;;;;;;;7.03;1.90;;;;;;;;;;5015575;28;20018;-72
2021/04/15 11:52:41;;;;;;;4.45;1.60;;;;;;;;;;5016074;28;20685;-72
2021/04/15 11:55:25;;;;;;;4.40;1.67;;;;;;;;;;5020292;28;20112;-72
2021/04/15 11:58:01;;;;;;;2.85;1.50;;;;;;;;;;5020398;28;20034;-72
2021/04/15 12:00:32;;;;;;;5.22;1.70;;;;;;;;;;5016853;28;20430;-73
2021/04/15 12:02:58;;;;;;;3.17;1.58;;;;;;;;;;5018761;28;20037;-72
2021/04/15 12:05:29;;;;;;;6.43;2.05;;;;;;;;;;5024393;28;20087;-72
2021/04/15 12:08:07;;;;;;;5.20;1.90;;;;;;;;;;5021292;28;20063;-72
2021/04/15 12:10:36;;;;;;;2.80;1.60;;;;;;;;;;5014884;28;20113;-72
2021/04/15 12:13:04;;;;;;;5.35;1.63;;;;;;;;;;5018575;28;20038;-72
2021/04/15 12:15:34;;;;;;;5.57;1.70;;;;;;;;;;5015417;28;20021;-74
2021/04/15 12:18:04;;;;;;;8.80;2.05;;;;;;;;;;5016862;28;20041;-75
2021/04/15 12:20:36;;;;;;;3.28;1.40;;;;;;;;;;5029172;28;20036;-75
2021/04/15 12:23:14;;;;;;;7.78;1.83;;;;;;;;;;5019045;28;20025;-75
2021/04/15 12:25:56;;;;;;;5.35;2.60;;;;;;;;;;5019851;28;20042;-75
2021/04/15 12:28:54;;;;;;;3.83;1.63;;;;;;;;;;5019568;28;20144;-76
2021/04/15 12:31:37;;;;;;;6.35;1.90;;;;;;;;;;5015208;28;20107;-76
2021/04/15 12:34:22;;;;;;;3.22;1.77;;;;;;;;;;5012698;28;20025;-75
2021/04/15 12:37:08;;;;;;;7.65;1.90;;;;;;;;;;5022740;28;20026;-76
2021/04/15 12:39:46;;;;;;;4.32;1.90;;;;;;;;;;5021132;28;20095;-75
2021/04/15 12:42:13;;;;;;;7.03;2.20;;;;;;;;;;5018965;28;20498;-75
2021/04/15 12:44:39;;;;;;;3.35;1.52;;;;;;;;;;5012531;28;20560;-75
2021/04/15 12:47:05;;;;;;;5.45;1.60;;;;;;;;;;5022258;28;20050;-75
2021/04/15 12:49:35;;;;;;;4.90;1.65;;;;;;;;;;5023185;28;20055;-75
2021/04/15 12:52:01;;;;;;;;;;;;;;;;;;5017644;28;20876;-75
2021/04/15 12:54:28;;;;;;;5.15;1.98;;;;;;;;;;5024974;28;19905;-76
2021/04/15 12:56:55;;;;;;;4.40;1.67;;;;;;;;;;5018790;28;20033;-74
2021/04/15 12:59:24;;;;;;;10.13;1.55;;;;;;;;;;5023171;28;20013;-73
2021/04/15 13:01:50;;;;;;;6.00;1.98;;;;;;;;;;5023214;28;20018;-73
2021/04/15 13:04:18;;;;;;;3.75;1.75;;;;;;;;;;5027089;28;20022;-73
2021/04/15 13:07:07;;;;;;;10.25;2.67;;;;;;;;;;5022351;28;20354;-73
2021/04/15 13:09:35;;;;;;;7.47;2.42;;;;;;;;;;5016815;28;20121;-74
2021/04/15 13:12:21;;;;;;;6.18;2.20;;;;;;;;;;5018023;28;20026;-74
2021/04/15 13:14:49;;;;;;;4.68;1.85;;;;;;;;;;5018217;28;20028;-74
2021/04/15 13:17:33;;;;;;;6.47;1.60;;;;;;;;;;5021530;28;20115;-74
2021/04/15 13:20:00;;;;;;;5.55;1.83;;;;;;;;;;5018959;28;20425;-73
2021/04/15 13:22:31;;;;;;;3.20;1.67;;;;;;;;;;5019975;28;20033;-73
2021/04/15 13:25:01;;;;;;;4.20;1.48;;;;;;;;;;5016883;28;20014;-74
2021/04/15 13:27:36;;;;;;;3.03;2.13;;;;;;;;;;5025498;28;20478;-73
2021/04/15 13:30:17;;;;;;;5.80;2.22;;;;;;;;;;5018129;28;20015;-73
2021/04/15 13:33:10;;;;;;;5.93;2.40;;;;;;;;;;5019827;28;20033;-73
2021/04/15 13:35:47;;;;;;;2.80;1.45;;;;;;;;;;5027209;28;20054;-74
2021/04/15 13:41:10;;;;;;;3.40;1.95;;;;;;;;;;5020304;28;20494;-73
2021/04/15 13:43:44;;;;;;;6.60;1.77;;;;;;;;;;5014891;28;20542;-73
2021/04/15 13:46:27;;;;;;;2.85;1.38;;;;;;;;;;5015320;28;20482;-73
2021/04/15 13:49:23;;;;;;;4.82;1.48;;;;;;;;;;5015214;28;20359;-73
2021/04/15 13:51:49;;;;;;;4.20;1.13;;;;;;;;;;5022968;28;20033;-73
2021/04/15 13:54:16;;;;;;;6.10;2.17;;;;;;;;;;5021377;28;20030;-74
2021/04/15 13:56:54;;;;;;;2.97;1.50;;;;;;;;;;5025537;28;20021;-72
2021/04/15 14:02:16;;;;;;;6.65;1.40;;;;;;;;;;5024316;28;20026;-72
2021/04/15 14:04:46;;;;;;;3.58;1.70;;;;;;;;;;5026938;28;20037;-73
2021/04/15 14:07:22;;;;;;;5.80;2.25;;;;;;;;;;5023351;28;20572;-73
2021/04/15 14:09:50;;;;;;;5.95;1.48;;;;;;;;;;5014007;28;20577;-73
2021/04/15 14:12:27;;;;;;;2.17;1.50;;;;;;;;;;5023651;28;20025;-73
2021/04/15 14:14:55;;;;;;;3.47;1.60;;;;;;;;;;5024008;28;20022;-73
2021/04/15 14:17:22;;;;;;;3.90;1.25;;;;;;;;;;5022342;28;20390;-73
2021/04/15 14:19:48;;;;;;;4.00;1.33;;;;;;;;;;5024867;28;20059;-73
2021/04/15 14:22:20;;;;;;;3.85;1.25;;;;;;;;;;5024079;28;20060;-72
2021/04/15 14:24:49;;;;;;;3.63;1.23;;;;;;;;;;5021687;28;20030;-72
2021/04/15 14:27:18;;;;;;;6.38;1.60;;;;;;;;;;5020422;28;20037;-73
2021/04/15 14:29:45;;;;;;;2.30;1.53;;;;;;;;;;5025836;28;20040;-73
2021/04/15 14:32:11;;;;;;;5.68;1.45;;;;;;;;;;5028466;28;20022;-73
2021/04/15 14:34:38;;;;;;;4.03;1.70;;;;;;;;;;5022471;28;20075;-72
2021/04/15 14:37:06;;;;;;;3.67;1.35;;;;;;;;;;5018765;28;20533;-72
2021/04/15 14:39:45;;;;;;;3.40;1.50;;;;;;;;;;5022918;28;20100;-73
2021/04/15 14:42:12;;;;;;;4.50;1.23;;;;;;;;;;5019624;28;20109;-73
2021/04/15 14:44:39;;;;;;;3.63;1.23;;;;;;;;;;5020216;28;20063;-72
2021/04/15 14:47:05;;;;;;;3.63;1.65;;;;;;;;;;5027286;28;20535;-72
2021/04/15 14:49:35;;;;;;;8.90;1.63;;;;;;;;;;5018340;28;20541;-73
2021/04/15 14:52:09;;;;;;;3.72;1.60;;;;;;;;;;5016491;28;20394;-73
2021/04/15 14:54:36;;;;;;;3.25;1.10;;;;;;;;;;5017124;28;20029;-73
2021/04/15 14:57:02;;;;;;;3.17;1.63;;;;;;;;;;5017359;28;20030;-73
2021/04/15 14:59:31;;;;;;;4.65;1.75;;;;;;;;;;5015758;28;20037;-74
2021/04/15 15:02:16;;;;;;;4.90;2.08;;;;;;;;;;5018273;28;20116;-75
2021/04/15 15:04:42;;;;;;;5.85;1.80;;;;;;;;;;5020251;28;20058;-74
2021/04/15 15:07:09;;;;;;;4.38;2.40;;;;;;;;;;5040647;28;20494;-74
2021/04/15 15:09:39;;;;;;;2.72;1.88;;;;;;;;;;5018938;28;20014;-73
2021/04/15 15:12:06;;;;;;;5.77;2.20;;;;;;;;;;5011566;28;20025;-73
2021/04/15 15:14:34;;;;;;;4.30;1.70;;;;;;;;;;5009676;28;20036;-75
2021/04/15 15:17:02;;;;;;;6.75;2.22;;;;;;;;;;5011423;28;20080;-73
2021/04/15 15:19:32;;;;;;;4.00;2.03;;;;;;;;;;5010699;28;20022;-73
2021/04/15 15:22:00;;;;;;;4.72;1.88;;;;;;;;;;5011878;28;20467;-73
2021/04/15 15:24:40;;;;;;;3.35;1.85;;;;;;;;;;5020523;28;20061;-76